sensor_id;sensor_type;location;lat;lon;timestamp;P1;durP1;ratioP1;P2;durP2;ratioP2
68353;SDS011;55274;43.060;25.618;2023-04-01T00:00:00;12.15;;;4.80;;
68353;SDS011;55274;43.060;25.618;2023-04-01T00:02:26;11.40;;;4.82;;
68353;SDS011;55274;43.060;25.618;2023-04-01T00:04:52;8.45;;;4.32;;
68353;SDS011;55274;43.060;25.618;2023-04-01T00:07:18;9.73;;;4.70;;
68353;SDS011;55274;43.060;25.618;2023-04-01T00:09:43;10.13;;;4.63;;
68353;SDS011;55274;43.060;25.618;2023-04-01T00:12:09;11.52;;;4.80;;
68353;SDS011;55274;43.060;25.618;2023-04-01T00:14:35;8.88;;;5.13;;
68353;SDS011;55274;43.060;25.618;2023-04-01T00:17:02;8.35;;;4.68;;
68353;SDS011;55274;43.060;25.618;2023-04-01T00:19:28;9.98;;;4.72;;
68353;SDS011;55274;43.060;25.618;2023-04-01T00:21:54;10.20;;;4.57;;
68353;SDS011;55274;43.060;25.618;2023-04-01T00:24:20;12.07;;;5.20;;
68353;SDS011;55274;43.060;25.618;2023-04-01T00:26:45;12.02;;;5.05;;
68353;SDS011;55274;43.060;25.618;2023-04-01T00:29:12;15.10;;;5.40;;
68353;SDS011;55274;43.060;25.618;2023-04-01T00:31:38;13.80;;;5.78;;
68353;SDS011;55274;43.060;25.618;2023-04-01T00:34:04;13.13;;;5.18;;
68353;SDS011;55274;43.060;25.618;2023-04-01T00:36:30;11.90;;;4.78;;
68353;SDS011;55274;43.060;25.618;2023-04-01T00:38:57;13.65;;;6.00;;
68353;SDS011;55274;43.060;25.618;2023-04-01T00:41:24;11.85;;;4.72;;
68353;SDS011;55274;43.060;25.618;2023-04-01T00:43:51;10.48;;;5.20;;
68353;SDS011;55274;43.060;25.618;2023-04-01T00:46:17;9.93;;;4.55;;
68353;SDS011;55274;43.060;25.618;2023-04-01T00:48:45;8.55;;;4.60;;
68353;SDS011;55274;43.060;25.618;2023-04-01T00:51:33;10.10;;;4.72;;
68353;SDS011;55274;43.060;25.618;2023-04-01T00:54:01;11.48;;;4.72;;
68353;SDS011;55274;43.060;25.618;2023-04-01T00:56:41;9.07;;;4.70;;
68353;SDS011;55274;43.060;25.618;2023-04-01T00:59:14;11.18;;;4.47;;
68353;SDS011;55274;43.060;25.618;2023-04-01T01:01:44;9.65;;;4.75;;
68353;SDS011;55274;43.060;25.618;2023-04-01T01:04:23;9.32;;;4.53;;
68353;SDS011;55274;43.060;25.618;2023-04-01T01:06:54;8.43;;;4.40;;
68353;SDS011;55274;43.060;25.618;2023-04-01T01:13:07;12.20;;;4.68;;
68353;SDS011;55274;43.060;25.618;2023-04-01T01:21:14;7.78;;;4.72;;
68353;SDS011;55274;43.060;25.618;2023-04-01T01:26:58;8.32;;;4.60;;
68353;SDS011;55274;43.060;25.618;2023-04-01T01:35:08;9.77;;;5.25;;
68353;SDS011;55274;43.060;25.618;2023-04-01T01:37:35;9.77;;;5.13;;
68353;SDS011;55274;43.060;25.618;2023-04-01T01:40:05;11.85;;;4.85;;
68353;SDS011;55274;43.060;25.618;2023-04-01T01:42:33;9.45;;;4.88;;
68353;SDS011;55274;43.060;25.618;2023-04-01T01:45:02;10.82;;;5.30;;
68353;SDS011;55274;43.060;25.618;2023-04-01T01:47:31;9.93;;;4.80;;
68353;SDS011;55274;43.060;25.618;2023-04-01T01:49:58;9.18;;;4.75;;
68353;SDS011;55274;43.060;25.618;2023-04-01T01:52:29;8.77;;;4.40;;
68353;SDS011;55274;43.060;25.618;2023-04-01T01:54:55;11.15;;;4.90;;
68353;SDS011;55274;43.060;25.618;2023-04-01T01:57:23;10.23;;;4.90;;
68353;SDS011;55274;43.060;25.618;2023-04-01T02:00:00;7.75;;;4.70;;
68353;SDS011;55274;43.060;25.618;2023-04-01T02:02:39;7.88;;;4.72;;
68353;SDS011;55274;43.060;25.618;2023-04-01T02:05:10;10.43;;;4.78;;
68353;SDS011;55274;43.060;25.618;2023-04-01T02:08:05;8.32;;;4.40;;
68353;SDS011;55274;43.060;25.618;2023-04-01T02:10:35;9.02;;;4.90;;
68353;SDS011;55274;43.060;25.618;2023-04-01T02:13:05;9.10;;;4.53;;
68353;SDS011;55274;43.060;25.618;2023-04-01T02:15:41;8.70;;;4.60;;
68353;SDS011;55274;43.060;25.618;2023-04-01T02:18:11;8.82;;;4.80;;
68353;SDS011;55274;43.060;25.618;2023-04-01T02:20:38;9.52;;;4.28;;
68353;SDS011;55274;43.060;25.618;2023-04-01T02:23:05;11.65;;;4.53;;
68353;SDS011;55274;43.060;25.618;2023-04-01T02:25:33;9.48;;;4.30;;
68353;SDS011;55274;43.060;25.618;2023-04-01T02:28:01;10.40;;;4.30;;
68353;SDS011;55274;43.060;25.618;2023-04-01T02:30:31;8.65;;;4.32;;
68353;SDS011;55274;43.060;25.618;2023-04-01T02:33:00;8.55;;;4.20;;
68353;SDS011;55274;43.060;25.618;2023-04-01T02:35:27;9.13;;;4.28;;
68353;SDS011;55274;43.060;25.618;2023-04-01T02:37:54;7.38;;;4.90;;
68353;SDS011;55274;43.060;25.618;2023-04-01T02:40:20;9.50;;;4.50;;
68353;SDS011;55274;43.060;25.618;2023-04-01T02:42:47;13.05;;;4.38;;
68353;SDS011;55274;43.060;25.618;2023-04-01T02:45:13;8.82;;;4.38;;
68353;SDS011;55274;43.060;25.618;2023-04-01T02:47:39;8.13;;;4.63;;
68353;SDS011;55274;43.060;25.618;2023-04-01T02:50:05;8.98;;;4.35;;
68353;SDS011;55274;43.060;25.618;2023-04-01T02:52:32;12.07;;;4.15;;
68353;SDS011;55274;43.060;25.618;2023-04-01T02:54:58;8.88;;;4.38;;
68353;SDS011;55274;43.060;25.618;2023-04-01T02:57:24;7.47;;;4.13;;
68353;SDS011;55274;43.060;25.618;2023-04-01T02:59:50;9.18;;;4.22;;
68353;SDS011;55274;43.060;25.618;2023-04-01T03:02:16;8.65;;;4.43;;
68353;SDS011;55274;43.060;25.618;2023-04-01T03:04:42;6.38;;;3.92;;
68353;SDS011;55274;43.060;25.618;2023-04-01T03:07:09;9.32;;;4.55;;
68353;SDS011;55274;43.060;25.618;2023-04-01T03:09:35;9.00;;;4.93;;
68353;SDS011;55274;43.060;25.618;2023-04-01T03:12:05;8.02;;;4.10;;
68353;SDS011;55274;43.060;25.618;2023-04-01T03:14:31;14.90;;;5.10;;
68353;SDS011;55274;43.060;25.618;2023-04-01T03:16:57;12.18;;;4.20;;
68353;SDS011;55274;43.060;25.618;2023-04-01T03:19:22;9.57;;;4.57;;
68353;SDS011;55274;43.060;25.618;2023-04-01T03:21:48;10.77;;;4.60;;
68353;SDS011;55274;43.060;25.618;2023-04-01T03:24:14;6.88;;;4.47;;
68353;SDS011;55274;43.060;25.618;2023-04-01T03:26:40;9.73;;;4.35;;
68353;SDS011;55274;43.060;25.618;2023-04-01T03:29:05;11.82;;;4.95;;
68353;SDS011;55274;43.060;25.618;2023-04-01T03:31:31;16.08;;;4.72;;
68353;SDS011;55274;43.060;25.618;2023-04-01T03:33:57;10.60;;;4.32;;
68353;SDS011;55274;43.060;25.618;2023-04-01T03:36:22;7.35;;;3.83;;
68353;SDS011;55274;43.060;25.618;2023-04-01T03:38:48;10.88;;;4.45;;
68353;SDS011;55274;43.060;25.618;2023-04-01T03:41:15;13.65;;;4.70;;
68353;SDS011;55274;43.060;25.618;2023-04-01T03:43:41;9.73;;;3.95;;
68353;SDS011;55274;43.060;25.618;2023-04-01T03:46:08;11.60;;;4.95;;
68353;SDS011;55274;43.060;25.618;2023-04-01T03:48:33;8.68;;;4.07;;
68353;SDS011;55274;43.060;25.618;2023-04-01T03:50:59;9.50;;;4.30;;
68353;SDS011;55274;43.060;25.618;2023-04-01T03:53:25;8.07;;;4.03;;
68353;SDS011;55274;43.060;25.618;2023-04-01T03:55:51;9.23;;;4.00;;
68353;SDS011;55274;43.060;25.618;2023-04-01T03:58:18;8.20;;;4.32;;
68353;SDS011;55274;43.060;25.618;2023-04-01T04:00:44;7.80;;;4.55;;
68353;SDS011;55274;43.060;25.618;2023-04-01T04:03:10;9.30;;;4.35;;
68353;SDS011;55274;43.060;25.618;2023-04-01T04:05:36;8.40;;;4.05;;
68353;SDS011;55274;43.060;25.618;2023-04-01T04:08:02;8.30;;;4.10;;
68353;SDS011;55274;43.060;25.618;2023-04-01T04:10:28;9.88;;;4.22;;
68353;SDS011;55274;43.060;25.618;2023-04-01T04:12:54;8.23;;;4.60;;
68353;SDS011;55274;43.060;25.618;2023-04-01T04:15:20;7.93;;;4.63;;
68353;SDS011;55274;43.060;25.618;2023-04-01T04:17:47;8.05;;;4.40;;
68353;SDS011;55274;43.060;25.618;2023-04-01T04:20:13;8.05;;;4.28;;
68353;SDS011;55274;43.060;25.618;2023-04-01T04:22:39;9.07;;;4.30;;
68353;SDS011;55274;43.060;25.618;2023-04-01T04:25:05;8.07;;;4.10;;
68353;SDS011;55274;43.060;25.618;2023-04-01T04:27:31;16.70;;;5.05;;
68353;SDS011;55274;43.060;25.618;2023-04-01T04:29:58;10.80;;;4.82;;
68353;SDS011;55274;43.060;25.618;2023-04-01T04:32:23;9.07;;;4.35;;
68353;SDS011;55274;43.060;25.618;2023-04-01T04:34:49;8.32;;;4.53;;
68353;SDS011;55274;43.060;25.618;2023-04-01T04:37:15;7.63;;;4.25;;
68353;SDS011;55274;43.060;25.618;2023-04-01T04:39:40;8.55;;;4.68;;
68353;SDS011;55274;43.060;25.618;2023-04-01T04:42:06;9.63;;;4.60;;
68353;SDS011;55274;43.060;25.618;2023-04-01T04:44:32;10.40;;;4.80;;
68353;SDS011;55274;43.060;25.618;2023-04-01T04:46:58;7.97;;;4.18;;
68353;SDS011;55274;43.060;25.618;2023-04-01T04:49:23;8.75;;;4.28;;
68353;SDS011;55274;43.060;25.618;2023-04-01T04:51:49;9.15;;;4.82;;
68353;SDS011;55274;43.060;25.618;2023-04-01T04:54:15;10.35;;;5.38;;
68353;SDS011;55274;43.060;25.618;2023-04-01T04:56:41;14.20;;;4.53;;
68353;SDS011;55274;43.060;25.618;2023-04-01T04:59:07;13.35;;;4.97;;
68353;SDS011;55274;43.060;25.618;2023-04-01T05:01:32;9.52;;;4.97;;
68353;SDS011;55274;43.060;25.618;2023-04-01T05:03:58;10.35;;;4.82;;
68353;SDS011;55274;43.060;25.618;2023-04-01T05:06:25;9.68;;;4.72;;
68353;SDS011;55274;43.060;25.618;2023-04-01T05:08:54;13.25;;;5.90;;
68353;SDS011;55274;43.060;25.618;2023-04-01T05:11:20;10.65;;;5.00;;
68353;SDS011;55274;43.060;25.618;2023-04-01T05:13:46;20.95;;;5.75;;
68353;SDS011;55274;43.060;25.618;2023-04-01T05:16:17;9.27;;;5.15;;
68353;SDS011;55274;43.060;25.618;2023-04-01T05:18:44;14.40;;;5.55;;
68353;SDS011;55274;43.060;25.618;2023-04-01T05:21:12;15.52;;;5.55;;
68353;SDS011;55274;43.060;25.618;2023-04-01T05:23:39;17.60;;;5.18;;
68353;SDS011;55274;43.060;25.618;2023-04-01T05:26:06;16.42;;;5.82;;
68353;SDS011;55274;43.060;25.618;2023-04-01T05:28:35;19.58;;;5.95;;
68353;SDS011;55274;43.060;25.618;2023-04-01T05:31:01;11.38;;;4.93;;
68353;SDS011;55274;43.060;25.618;2023-04-01T05:33:29;12.77;;;5.07;;
68353;SDS011;55274;43.060;25.618;2023-04-01T05:35:56;10.32;;;5.10;;
68353;SDS011;55274;43.060;25.618;2023-04-01T05:38:30;10.07;;;4.80;;
68353;SDS011;55274;43.060;25.618;2023-04-01T05:40:59;9.52;;;4.30;;
68353;SDS011;55274;43.060;25.618;2023-04-01T05:43:26;12.05;;;4.47;;
68353;SDS011;55274;43.060;25.618;2023-04-01T05:45:51;10.35;;;4.70;;
68353;SDS011;55274;43.060;25.618;2023-04-01T05:48:17;12.60;;;5.45;;
68353;SDS011;55274;43.060;25.618;2023-04-01T05:50:43;10.45;;;4.40;;
68353;SDS011;55274;43.060;25.618;2023-04-01T05:53:08;10.25;;;4.90;;
68353;SDS011;55274;43.060;25.618;2023-04-01T05:55:35;12.38;;;4.75;;
68353;SDS011;55274;43.060;25.618;2023-04-01T05:58:01;12.23;;;5.28;;
68353;SDS011;55274;43.060;25.618;2023-04-01T06:00:27;13.63;;;5.03;;
68353;SDS011;55274;43.060;25.618;2023-04-01T06:02:53;14.07;;;5.60;;
68353;SDS011;55274;43.060;25.618;2023-04-01T06:07:50;13.60;;;5.72;;
68353;SDS011;55274;43.060;25.618;2023-04-01T06:10:20;14.85;;;5.07;;
68353;SDS011;55274;43.060;25.618;2023-04-01T06:35:43;12.52;;;6.07;;
68353;SDS011;55274;43.060;25.618;2023-04-01T06:46:52;15.25;;;6.68;;
68353;SDS011;55274;43.060;25.618;2023-04-01T06:54:52;15.30;;;6.55;;
68353;SDS011;55274;43.060;25.618;2023-04-01T06:57:35;12.77;;;5.72;;
68353;SDS011;55274;43.060;25.618;2023-04-01T07:00:36;11.23;;;5.45;;
68353;SDS011;55274;43.060;25.618;2023-04-01T07:06:04;8.20;;;4.78;;
68353;SDS011;55274;43.060;25.618;2023-04-01T07:08:35;9.20;;;5.25;;
68353;SDS011;55274;43.060;25.618;2023-04-01T07:11:05;11.00;;;5.78;;
68353;SDS011;55274;43.060;25.618;2023-04-01T07:13:35;12.95;;;5.90;;
68353;SDS011;55274;43.060;25.618;2023-04-01T07:16:17;15.00;;;7.10;;
68353;SDS011;55274;43.060;25.618;2023-04-01T07:19:18;11.07;;;5.57;;
68353;SDS011;55274;43.060;25.618;2023-04-01T07:21:55;15.05;;;6.68;;
68353;SDS011;55274;43.060;25.618;2023-04-01T07:24:26;13.07;;;5.22;;
68353;SDS011;55274;43.060;25.618;2023-04-01T07:26:57;16.08;;;5.88;;
68353;SDS011;55274;43.060;25.618;2023-04-01T07:29:23;12.70;;;6.03;;
68353;SDS011;55274;43.060;25.618;2023-04-01T07:31:57;16.70;;;6.35;;
68353;SDS011;55274;43.060;25.618;2023-04-01T07:37:29;12.25;;;6.15;;
68353;SDS011;55274;43.060;25.618;2023-04-01T07:48:30;17.42;;;6.05;;
68353;SDS011;55274;43.060;25.618;2023-04-01T07:51:17;15.02;;;5.13;;
68353;SDS011;55274;43.060;25.618;2023-04-01T07:53:49;11.48;;;5.72;;
68353;SDS011;55274;43.060;25.618;2023-04-01T07:56:38;12.65;;;4.97;;
68353;SDS011;55274;43.060;25.618;2023-04-01T07:59:31;14.10;;;5.53;;
68353;SDS011;55274;43.060;25.618;2023-04-01T08:07:45;11.05;;;4.88;;
68353;SDS011;55274;43.060;25.618;2023-04-01T08:22:07;14.88;;;4.25;;
68353;SDS011;55274;43.060;25.618;2023-04-01T08:24:44;6.82;;;2.97;;
68353;SDS011;55274;43.060;25.618;2023-04-01T08:27:14;8.10;;;3.30;;
68353;SDS011;55274;43.060;25.618;2023-04-01T08:29:51;7.88;;;2.97;;
68353;SDS011;55274;43.060;25.618;2023-04-01T08:32:36;7.60;;;2.67;;
68353;SDS011;55274;43.060;25.618;2023-04-01T08:37:57;7.05;;;2.47;;
68353;SDS011;55274;43.060;25.618;2023-04-01T08:55:02;5.22;;;2.00;;
68353;SDS011;55274;43.060;25.618;2023-04-01T08:57:45;5.57;;;1.85;;
68353;SDS011;55274;43.060;25.618;2023-04-01T09:00:23;5.30;;;2.30;;
68353;SDS011;55274;43.060;25.618;2023-04-01T09:06:00;5.82;;;2.47;;
68353;SDS011;55274;43.060;25.618;2023-04-01T09:14:51;4.07;;;1.30;;
68353;SDS011;55274;43.060;25.618;2023-04-01T09:43:15;5.90;;;1.15;;
68353;SDS011;55274;43.060;25.618;2023-04-01T10:00:07;6.10;;;1.45;;
68353;SDS011;55274;43.060;25.618;2023-04-01T10:30:00;3.50;;;1.48;;
68353;SDS011;55274;43.060;25.618;2023-04-01T11:27:12;3.70;;;1.58;;
68353;SDS011;55274;43.060;25.618;2023-04-01T11:32:54;10.98;;;1.70;;
68353;SDS011;55274;43.060;25.618;2023-04-01T11:44:39;7.85;;;1.67;;
68353;SDS011;55274;43.060;25.618;2023-04-01T11:54:56;4.85;;;1.80;;
68353;SDS011;55274;43.060;25.618;2023-04-01T12:13:53;8.65;;;2.10;;
68353;SDS011;55274;43.060;25.618;2023-04-01T12:21:58;6.28;;;1.80;;
68353;SDS011;55274;43.060;25.618;2023-04-01T12:27:41;4.70;;;1.80;;
68353;SDS011;55274;43.060;25.618;2023-04-01T12:55:43;5.07;;;1.98;;
68353;SDS011;55274;43.060;25.618;2023-04-01T13:01:34;10.23;;;1.92;;
68353;SDS011;55274;43.060;25.618;2023-04-01T13:13:30;6.95;;;2.42;;
68353;SDS011;55274;43.060;25.618;2023-04-01T13:21:41;16.33;;;2.53;;
68353;SDS011;55274;43.060;25.618;2023-04-01T13:27:09;7.95;;;2.40;;
68353;SDS011;55274;43.060;25.618;2023-04-01T13:29:43;7.70;;;2.22;;
68353;SDS011;55274;43.060;25.618;2023-04-01T13:32:13;5.88;;;2.33;;
68353;SDS011;55274;43.060;25.618;2023-04-01T13:42:49;8.15;;;2.42;;
68353;SDS011;55274;43.060;25.618;2023-04-01T14:07:06;8.13;;;1.60;;
68353;SDS011;55274;43.060;25.618;2023-04-01T14:12:30;4.45;;;1.80;;
68353;SDS011;55274;43.060;25.618;2023-04-01T14:31:39;6.65;;;2.45;;
68353;SDS011;55274;43.060;25.618;2023-04-01T14:50:57;10.57;;;2.60;;
68353;SDS011;55274;43.060;25.618;2023-04-01T14:56:43;11.95;;;4.10;;
68353;SDS011;55274;43.060;25.618;2023-04-01T15:12:55;8.68;;;4.40;;
68353;SDS011;55274;43.060;25.618;2023-04-01T15:20:40;5.68;;;2.60;;
68353;SDS011;55274;43.060;25.618;2023-04-01T15:35:21;8.48;;;3.58;;
68353;SDS011;55274;43.060;25.618;2023-04-01T15:40:55;7.63;;;2.50;;
68353;SDS011;55274;43.060;25.618;2023-04-01T15:49:41;4.78;;;2.00;;
68353;SDS011;55274;43.060;25.618;2023-04-01T16:00:22;3.25;;;1.63;;
68353;SDS011;55274;43.060;25.618;2023-04-01T16:14:07;3.65;;;1.50;;
68353;SDS011;55274;43.060;25.618;2023-04-01T16:19:56;2.97;;;1.30;;
68353;SDS011;55274;43.060;25.618;2023-04-01T16:25:44;2.97;;;1.38;;
68353;SDS011;55274;43.060;25.618;2023-04-01T16:31:09;3.00;;;1.20;;
68353;SDS011;55274;43.060;25.618;2023-04-01T16:33:52;4.85;;;1.50;;
68353;SDS011;55274;43.060;25.618;2023-04-01T16:42:23;6.47;;;2.63;;
68353;SDS011;55274;43.060;25.618;2023-04-01T16:47:39;3.40;;;1.80;;
68353;SDS011;55274;43.060;25.618;2023-04-01T17:01:07;2.72;;;1.80;;
68353;SDS011;55274;43.060;25.618;2023-04-01T17:03:49;4.03;;;1.70;;
68353;SDS011;55274;43.060;25.618;2023-04-01T17:19:42;3.08;;;1.40;;
68353;SDS011;55274;43.060;25.618;2023-04-01T17:25:24;3.72;;;1.88;;
68353;SDS011;55274;43.060;25.618;2023-04-01T17:30:37;4.82;;;2.20;;
68353;SDS011;55274;43.060;25.618;2023-04-01T18:05:27;2.95;;;2.00;;
68353;SDS011;55274;43.060;25.618;2023-04-01T18:08:37;3.53;;;1.90;;
68353;SDS011;55274;43.060;25.618;2023-04-01T18:16:48;6.40;;;2.58;;
68353;SDS011;55274;43.060;25.618;2023-04-01T18:25:02;3.90;;;2.10;;
68353;SDS011;55274;43.060;25.618;2023-04-01T18:27:41;5.35;;;2.50;;
68353;SDS011;55274;43.060;25.618;2023-04-01T18:30:18;4.90;;;3.00;;
68353;SDS011;55274;43.060;25.618;2023-04-01T18:32:50;10.43;;;2.78;;
68353;SDS011;55274;43.060;25.618;2023-04-01T18:38:16;10.77;;;4.93;;
68353;SDS011;55274;43.060;25.618;2023-04-01T18:40:52;7.88;;;3.55;;
68353;SDS011;55274;43.060;25.618;2023-04-01T18:43:46;4.97;;;2.42;;
68353;SDS011;55274;43.060;25.618;2023-04-01T18:49:21;3.88;;;2.00;;
68353;SDS011;55274;43.060;25.618;2023-04-01T18:57:46;2.28;;;1.45;;
68353;SDS011;55274;43.060;25.618;2023-04-01T19:00:21;1.80;;;1.08;;
68353;SDS011;55274;43.060;25.618;2023-04-01T19:02:55;2.47;;;1.25;;
68353;SDS011;55274;43.060;25.618;2023-04-01T19:05:36;3.03;;;1.35;;
68353;SDS011;55274;43.060;25.618;2023-04-01T19:16:28;1.80;;;1.27;;
68353;SDS011;55274;43.060;25.618;2023-04-01T19:21:47;1.50;;;1.00;;
68353;SDS011;55274;43.060;25.618;2023-04-01T19:38:40;2.30;;;0.90;;
68353;SDS011;55274;43.060;25.618;2023-04-01T19:41:19;1.50;;;0.90;;
68353;SDS011;55274;43.060;25.618;2023-04-01T19:50:10;1.70;;;1.13;;
68353;SDS011;55274;43.060;25.618;2023-04-01T19:52:47;2.00;;;0.90;;
68353;SDS011;55274;43.060;25.618;2023-04-01T19:55:21;1.33;;;0.77;;
68353;SDS011;55274;43.060;25.618;2023-04-01T20:00:36;2.90;;;1.20;;
68353;SDS011;55274;43.060;25.618;2023-04-01T20:06:22;1.75;;;1.05;;
68353;SDS011;55274;43.060;25.618;2023-04-01T20:11:57;1.90;;;0.93;;
68353;SDS011;55274;43.060;25.618;2023-04-01T20:17:24;3.30;;;0.98;;
68353;SDS011;55274;43.060;25.618;2023-04-01T20:26:12;1.63;;;0.93;;
68353;SDS011;55274;43.060;25.618;2023-04-01T20:28:12;1.83;;;1.38;;
68353;SDS011;55274;43.060;25.618;2023-04-01T20:39:27;1.98;;;1.00;;
68353;SDS011;55274;43.060;25.618;2023-04-01T20:53:01;2.05;;;0.80;;
68353;SDS011;55274;43.060;25.618;2023-04-01T21:04:27;2.05;;;0.77;;
68353;SDS011;55274;43.060;25.618;2023-04-01T21:12:54;4.07;;;1.42;;
68353;SDS011;55274;43.060;25.618;2023-04-01T21:24:41;5.57;;;2.22;;
68353;SDS011;55274;43.060;25.618;2023-04-01T21:27:03;5.70;;;2.53;;
68353;SDS011;55274;43.060;25.618;2023-04-01T21:32:43;4.80;;;1.77;;
68353;SDS011;55274;43.060;25.618;2023-04-01T21:38:21;5.60;;;2.10;;
68353;SDS011;55274;43.060;25.618;2023-04-01T21:40:56;4.53;;;2.45;;
68353;SDS011;55274;43.060;25.618;2023-04-01T21:43:50;4.88;;;1.90;;
68353;SDS011;55274;43.060;25.618;2023-04-01T22:08:20;5.82;;;1.80;;
68353;SDS011;55274;43.060;25.618;2023-04-01T22:13:31;2.80;;;1.60;;
68353;SDS011;55274;43.060;25.618;2023-04-01T22:18:45;2.88;;;1.92;;
68353;SDS011;55274;43.060;25.618;2023-04-01T22:27:45;2.22;;;1.30;;
68353;SDS011;55274;43.060;25.618;2023-04-01T22:35:38;1.70;;;1.13;;
68353;SDS011;55274;43.060;25.618;2023-04-01T22:44:01;2.50;;;1.38;;
68353;SDS011;55274;43.060;25.618;2023-04-01T22:46:36;4.70;;;1.77;;
68353;SDS011;55274;43.060;25.618;2023-04-01T22:49:22;2.10;;;1.50;;
68353;SDS011;55274;43.060;25.618;2023-04-01T22:52:26;2.40;;;1.40;;
68353;SDS011;55274;43.060;25.618;2023-04-01T22:54:45;4.95;;;1.50;;
68353;SDS011;55274;43.060;25.618;2023-04-01T22:57:14;2.42;;;1.48;;
68353;SDS011;55274;43.060;25.618;2023-04-01T23:02:36;3.22;;;1.70;;
68353;SDS011;55274;43.060;25.618;2023-04-01T23:05:23;3.53;;;1.67;;
68353;SDS011;55274;43.060;25.618;2023-04-01T23:08:01;5.47;;;2.00;;
68353;SDS011;55274;43.060;25.618;2023-04-01T23:10:52;5.20;;;2.00;;
68353;SDS011;55274;43.060;25.618;2023-04-01T23:13:41;2.83;;;1.92;;
68353;SDS011;55274;43.060;25.618;2023-04-01T23:16:13;4.60;;;1.88;;
68353;SDS011;55274;43.060;25.618;2023-04-01T23:21:36;4.57;;;2.47;;
68353;SDS011;55274;43.060;25.618;2023-04-01T23:24:21;2.47;;;1.67;;
68353;SDS011;55274;43.060;25.618;2023-04-01T23:27:05;3.13;;;1.90;;
68353;SDS011;55274;43.060;25.618;2023-04-01T23:29:37;4.22;;;1.50;;
68353;SDS011;55274;43.060;25.618;2023-04-01T23:32:17;2.58;;;1.55;;
68353;SDS011;55274;43.060;25.618;2023-04-01T23:34:48;2.13;;;1.45;;
68353;SDS011;55274;43.060;25.618;2023-04-01T23:37:17;2.55;;;1.60;;
68353;SDS011;55274;43.060;25.618;2023-04-01T23:39:54;2.50;;;1.50;;
68353;SDS011;55274;43.060;25.618;2023-04-01T23:44:50;3.58;;;1.70;;
68353;SDS011;55274;43.060;25.618;2023-04-01T23:47:20;2.20;;;1.30;;
68353;SDS011;55274;43.060;25.618;2023-04-01T23:49:55;2.95;;;2.00;;
68353;SDS011;55274;43.060;25.618;2023-04-01T23:52:30;1.77;;;1.33;;
68353;SDS011;55274;43.060;25.618;2023-04-01T23:57:30;2.35;;;1.48;;
